Wetterdaten: Woche 25.06.07 - 01.07.07 (KW26)
Datum Zeit Temperatur Luftfeuchte Luftdruck Niederschlag
25.06.2007 00:00 17,3 C 76 % 1014 hPa 0,0 l/m
25.06.2007 01:00 16,8 C 84 % 1014 hPa 0,0 l/m
25.06.2007 02:00 16,3 C 88 % 1013 hPa 0,0 l/m
25.06.2007 03:00 15,5 C 90 % 1012 hPa 0,0 l/m
25.06.2007 04:00 14,9 C 92 % 1012 hPa 0,0 l/m
25.06.2007 05:00 14,3 C 93 % 1012 hPa 0,0 l/m
25.06.2007 06:00 14,1 C 94 % 1011 hPa 0,0 l/m
25.06.2007 07:00 16,4 C 93 % 1011 hPa 0,0 l/m
25.06.2007 08:00 19,8 C 73 % 1011 hPa 0,0 l/m
25.06.2007 09:00 22,3 C 55 % 1011 hPa 0,0 l/m
25.06.2007 10:00 23,1 C 43 % 1011 hPa 0,0 l/m
25.06.2007 11:00 22,9 C 42 % 1011 hPa 0,0 l/m
25.06.2007 12:00 21,3 C 47 % 1011 hPa 0,0 l/m
25.06.2007 13:00 19,5 C 57 % 1011 hPa 1,0 l/m
25.06.2007 14:00 17,0 C 79 % 1011 hPa 0,0 l/m
25.06.2007 15:00 16,9 C 81 % 1011 hPa 1,0 l/m
25.06.2007 16:00 17,3 C 80 % 1010 hPa 0,0 l/m
25.06.2007 17:00 17,4 C 81 % 1009 hPa 0,0 l/m
25.06.2007 18:00 17,5 C 80 % 1008 hPa 2,0 l/m
25.06.2007 19:00 15,5 C 86 % 1009 hPa 6,0 l/m
25.06.2007 20:00 13,6 C 89 % 1010 hPa 3,0 l/m
25.06.2007 21:00 12,2 C 90 % 1010 hPa 0,0 l/m
25.06.2007 22:00 12,1 C 95 % 1011 hPa 1,0 l/m
25.06.2007 23:00 11,6 C 95 % 1011 hPa 0,0 l/m
26.06.2007 00:00 11,4 C 96 % 1010 hPa 0,0 l/m
26.06.2007 01:00 11,4 C 96 % 1010 hPa 0,0 l/m
26.06.2007 02:00 11,2 C 96 % 1010 hPa 0,0 l/m
26.06.2007 03:00 10,8 C 96 % 1009 hPa 0,0 l/m
26.06.2007 04:00 10,2 C 91 % 1008 hPa 0,0 l/m
26.06.2007 05:00 9,6 C 86 % 1008 hPa 0,0 l/m
26.06.2007 06:00 9,8 C 88 % 1007 hPa 0,0 l/m
26.06.2007 07:00 11,4 C 76 % 1007 hPa 0,0 l/m
26.06.2007 08:00 12,2 C 66 % 1007 hPa 0,0 l/m
26.06.2007 09:00 13,0 C 60 % 1007 hPa 0,0 l/m
26.06.2007 10:00 14,1 C 54 % 1008 hPa 0,0 l/m
26.06.2007 11:00 14,0 C 55 % 1009 hPa 0,0 l/m
26.06.2007 12:00 14,0 C 56 % 1009 hPa 0,0 l/m
26.06.2007 13:00 13,9 C 61 % 1010 hPa 1,0 l/m
26.06.2007 14:00 13,8 C 72 % 1010 hPa 0,0 l/m
26.06.2007 15:00 15,5 C 57 % 1010 hPa 0,0 l/m
26.06.2007 16:00 16,3 C 50 % 1010 hPa 0,0 l/m
26.06.2007 17:00 16,6 C 48 % 1010 hPa 0,0 l/m
26.06.2007 18:00 16,3 C 49 % 1010 hPa 0,0 l/m
26.06.2007 19:00 15,0 C 57 % 1010 hPa 0,0 l/m
26.06.2007 20:00 13,0 C 76 % 1011 hPa 0,0 l/m
26.06.2007 21:00 11,9 C 79 % 1011 hPa 0,0 l/m
26.06.2007 22:00 11,0 C 86 % 1011 hPa 0,0 l/m
26.06.2007 23:00 10,5 C 89 % 1011 hPa 0,0 l/m
27.06.2007 00:00 10,3 C 90 % 1011 hPa 0,0 l/m
27.06.2007 01:00 10,3 C 92 % 1011 hPa 0,0 l/m
27.06.2007 02:00 10,3 C 92 % 1011 hPa 0,0 l/m
27.06.2007 03:00 10,2 C 92 % 1011 hPa 0,0 l/m
27.06.2007 04:00 10,1 C 90 % 1011 hPa 1,0 l/m
27.06.2007 05:00 9,9 C 87 % 1011 hPa 0,0 l/m
27.06.2007 06:00 10,0 C 86 % 1011 hPa 0,0 l/m
27.06.2007 07:00 10,4 C 92 % 1011 hPa 0,0 l/m
27.06.2007 08:00 11,2 C 86 % 1012 hPa 0,0 l/m
27.06.2007 09:00 11,9 C 75 % 1013 hPa 0,0 l/m
27.06.2007 10:00 12,5 C 70 % 1014 hPa 0,0 l/m
27.06.2007 11:00 13,9 C 62 % 1015 hPa 0,0 l/m
27.06.2007 12:00 14,8 C 58 % 1016 hPa 0,0 l/m
27.06.2007 13:00 12,3 C 68 % 1018 hPa 1,0 l/m
27.06.2007 14:00 11,9 C 87 % 1021 hPa 0,0 l/m
27.06.2007 15:00 13,3 C 82 % 1043 hPa 1,0 l/m
27.06.2007 16:00 12,9 C 85 % 1119 hPa 1,0 l/m
27.06.2007 17:00 12,4 C 76 % 1121 hPa 0,0 l/m
27.06.2007 18:00 14,1 C 70 % 1121 hPa 0,0 l/m
27.06.2007 19:00 11,7 C 75 % 1121 hPa 1,0 l/m
27.06.2007 20:00 11,1 C 80 % 1121 hPa 0,0 l/m
27.06.2007 21:00 10,4 C 82 % 1121 hPa 0,0 l/m
27.06.2007 22:00 10,0 C 85 % 1121 hPa 0,0 l/m
27.06.2007 23:00 10,0 C 86 % 1121 hPa 0,0 l/m
28.06.2007 00:00 10,0 C 86 % 1121 hPa 0,0 l/m
28.06.2007 01:00 9,9 C 86 % 1121 hPa 0,0 l/m
28.06.2007 02:00 9,9 C 87 % 1121 hPa 0,0 l/m
28.06.2007 03:00 9,8 C 89 % 1121 hPa 0,0 l/m
28.06.2007 04:00 9,8 C 87 % 1121 hPa 0,0 l/m
28.06.2007 05:00 9,8 C 86 % 1121 hPa 0,0 l/m
28.06.2007 06:00 9,7 C 87 % 1121 hPa 0,0 l/m
28.06.2007 07:00 10,4 C 88 % 1121 hPa 0,0 l/m
28.06.2007 08:00 11,5 C 78 % 1121 hPa 0,0 l/m
28.06.2007 09:00 12,1 C 69 % 1121 hPa 0,0 l/m
28.06.2007 10:00 13,3 C 61 % 1121 hPa 0,0 l/m
28.06.2007 11:00 14,1 C 55 % 1121 hPa 0,0 l/m
28.06.2007 12:00 15,2 C 48 % 1121 hPa 0,0 l/m
28.06.2007 13:00 16,2 C 44 % 1121 hPa 0,0 l/m
28.06.2007 14:00 15,8 C 45 % 1121 hPa 0,0 l/m
28.06.2007 15:00 16,6 C 43 % 1121 hPa 0,0 l/m
28.06.2007 16:00 17,4 C 37 % 1121 hPa 0,0 l/m
28.06.2007 17:00 17,7 C 36 % 1121 hPa 0,0 l/m
28.06.2007 18:00 17,4 C 37 % 1121 hPa 0,0 l/m
28.06.2007 19:00 16,1 C 42 % 1121 hPa 0,0 l/m
28.06.2007 20:00 15,2 C 46 % 1121 hPa 0,0 l/m
28.06.2007 21:00 14,2 C 48 % 1121 hPa 0,0 l/m
28.06.2007 22:00 13,2 C 56 % 1121 hPa 0,0 l/m
28.06.2007 23:00 12,8 C 59 % 1121 hPa 0,0 l/m
29.06.2007 00:00 12,7 C 61 % 1121 hPa 0,0 l/m
29.06.2007 01:00 12,4 C 65 % 1121 hPa 0,0 l/m
29.06.2007 02:00 12,2 C 69 % 1121 hPa 0,0 l/m
29.06.2007 03:00 11,7 C 75 % 1121 hPa 0,0 l/m
29.06.2007 04:00 11,4 C 79 % 1121 hPa 0,0 l/m
29.06.2007 05:00 11,2 C 82 % 1121 hPa 0,0 l/m
29.06.2007 06:00 11,0 C 85 % 1121 hPa 0,0 l/m
29.06.2007 07:00 11,9 C 84 % 1121 hPa 0,0 l/m
29.06.2007 08:00 14,1 C 64 % 1121 hPa 0,0 l/m
29.06.2007 09:00 15,9 C 53 % 1121 hPa 0,0 l/m
29.06.2007 10:00 17,3 C 47 % 1121 hPa 0,0 l/m
29.06.2007 11:00 17,6 C 45 % 1121 hPa 0,0 l/m
29.06.2007 12:00 18,6 C 42 % 1121 hPa 0,0 l/m
29.06.2007 13:00 19,6 C 40 % 1121 hPa 0,0 l/m
29.06.2007 14:00 20,3 C 38 % 1121 hPa 0,0 l/m
29.06.2007 15:00 20,8 C 36 % 1121 hPa 0,0 l/m
29.06.2007 16:00 20,4 C 36 % 1121 hPa 0,0 l/m
29.06.2007 17:00 20,0 C 37 % 1121 hPa 0,0 l/m
29.06.2007 18:00 19,6 C 40 % 1121 hPa 0,0 l/m
29.06.2007 19:00 18,7 C 45 % 1121 hPa 0,0 l/m
29.06.2007 20:00 17,5 C 45 % 1121 hPa 0,0 l/m
29.06.2007 21:00 16,6 C 45 % 1121 hPa 0,0 l/m
29.06.2007 22:00 15,9 C 51 % 1121 hPa 0,0 l/m
29.06.2007 23:00 15,6 C 52 % 1121 hPa 0,0 l/m
30.06.2007 00:00 15,2 C 55 % 1121 hPa 0,0 l/m
30.06.2007 01:00 14,8 C 60 % 1121 hPa 0,0 l/m
30.06.2007 02:00 14,3 C 65 % 1121 hPa 0,0 l/m
30.06.2007 03:00 13,9 C 69 % 1121 hPa 0,0 l/m
30.06.2007 04:00 13,5 C 71 % 1121 hPa 0,0 l/m
30.06.2007 05:00 13,3 C 74 % 1121 hPa 0,0 l/m
30.06.2007 06:00 12,9 C 78 % 1121 hPa 0,0 l/m
30.06.2007 07:00 13,6 C 74 % 1121 hPa 0,0 l/m
30.06.2007 08:00 14,6 C 65 % 1121 hPa 0,0 l/m
30.06.2007 09:00 16,6 C 56 % 1121 hPa 0,0 l/m
30.06.2007 10:00 17,5 C 52 % 1121 hPa 0,0 l/m
30.06.2007 11:00 18,3 C 48 % 1121 hPa 0,0 l/m
30.06.2007 12:00 19,6 C 45 % 1121 hPa 0,0 l/m
30.06.2007 13:00 20,6 C 43 % 1121 hPa 0,0 l/m
30.06.2007 14:00 21,4 C 42 % 1121 hPa 0,0 l/m
30.06.2007 15:00 22,0 C 40 % 1121 hPa 0,0 l/m
30.06.2007 16:00 22,8 C 39 % 1121 hPa 0,0 l/m
30.06.2007 17:00 23,2 C 38 % 1121 hPa 0,0 l/m
30.06.2007 18:00 23,4 C 38 % 1121 hPa 0,0 l/m
30.06.2007 19:00 22,6 C 40 % 1121 hPa 0,0 l/m
30.06.2007 20:00 21,4 C 46 % 1121 hPa 0,0 l/m
30.06.2007 21:00 18,9 C 60 % 1121 hPa 0,0 l/m
30.06.2007 22:00 16,7 C 68 % 1121 hPa 0,0 l/m
30.06.2007 23:00 15,3 C 75 % 1121 hPa 0,0 l/m
01.07.2007 00:00 14,4 C 82 % 1121 hPa 0,0 l/m
01.07.2007 01:00 13,9 C 85 % 1121 hPa 0,0 l/m
01.07.2007 02:00 13,4 C 88 % 1121 hPa 0,0 l/m
01.07.2007 03:00 12,7 C 90 % 1121 hPa 0,0 l/m
01.07.2007 04:00 12,2 C 92 % 1121 hPa 0,0 l/m
01.07.2007 05:00 11,9 C 94 % 1121 hPa 0,0 l/m
01.07.2007 06:00 12,0 C 95 % 1121 hPa 0,0 l/m
01.07.2007 07:00 13,9 C 94 % 1121 hPa 0,0 l/m
01.07.2007 08:00 16,3 C 86 % 1121 hPa 0,0 l/m
01.07.2007 09:00 18,8 C 71 % 1121 hPa 0,0 l/m
01.07.2007 10:00 21,3 C 60 % 1121 hPa 0,0 l/m
01.07.2007 11:00 23,1 C 50 % 1121 hPa 0,0 l/m
01.07.2007 12:00 24,9 C 38 % 1121 hPa 0,0 l/m
01.07.2007 13:00 26,1 C 33 % 1121 hPa 0,0 l/m
01.07.2007 14:00 26,8 C 31 % 1121 hPa 0,0 l/m
01.07.2007 15:00 26,5 C 31 % 1121 hPa 0,0 l/m
01.07.2007 16:00 26,5 C 34 % 1121 hPa 0,0 l/m
01.07.2007 17:00 24,0 C 41 % 1121 hPa 0,0 l/m
01.07.2007 18:00 21,1 C 61 % 1121 hPa 0,0 l/m
01.07.2007 19:00 18,2 C 76 % 1121 hPa 4,0 l/m
01.07.2007 20:00 17,1 C 84 % 1115 hPa 0,0 l/m
01.07.2007 21:00 16,8 C 91 % 109 hPa 0,0 l/m
01.07.2007 22:00 16,3 C 92 % 0 hPa 0,0 l/m
01.07.2007 23:00 15,8 C 92 % 0 hPa 0,0 l/m
Min-Datum _ 26.06.07 01.07.07 01.07.07 -
_ Min-Zeit 05:53 13:45 21:07 -
Minimum _ 9,3 C 30 % 0 hPa -
Max-Datum _ 01.07.07 26.06.07 27.06.07 25.06.07
_ Max-Zeit 14:36 00:36 16:09 19:44
Maximum _ 27,1 C 97 % 1121 hPa 6,0 l/m
Durchschnitt _ 15,2 C 68 % 1060 hPa #24,0 l/m

Durchschnitt Minimum Temp.14,8 C
Durchschnitt Maximum Temp.15,7 C